sensor_id;sensor_type;location;lat;lon;timestamp;pressure;altitude;pressure_sealevel;temperature;humidity
49947;BME280;35839;48.662;13.300;2023-01-27T05:33:41;97480.59;;;-0.17;100.00
49947;BME280;35839;48.662;13.300;2023-01-27T05:36:08;97475.38;;;-0.16;100.00
49947;BME280;35839;48.662;13.300;2023-01-27T05:38:35;97478.59;;;-0.12;100.00
49947;BME280;35839;48.662;13.300;2023-01-27T05:41:03;97474.13;;;-0.09;100.00
49947;BME280;35839;48.662;13.300;2023-01-27T05:43:30;97479.28;;;-0.09;100.00
49947;BME280;35839;48.662;13.300;2023-01-27T05:46:06;97477.75;;;-0.29;100.00
49947;BME280;35839;48.662;13.300;2023-01-27T05:48:33;97483.75;;;-0.12;100.00
49947;BME280;35839;48.662;13.300;2023-01-27T05:50:58;97486.34;;;-0.46;100.00
49947;BME280;35839;48.662;13.300;2023-01-27T05:53:24;97483.72;;;-0.28;100.00
49947;BME280;35839;48.662;13.300;2023-01-27T05:55:51;97474.28;;;-0.28;100.00
49947;BME280;35839;48.662;13.300;2023-01-27T05:58:17;97475.38;;;-0.49;100.00
49947;BME280;35839;48.662;13.300;2023-01-27T06:00:42;97477.69;;;-0.45;100.00
49947;BME280;35839;48.662;13.300;2023-01-27T06:03:08;97472.25;;;-0.38;100.00
49947;BME280;35839;48.662;13.300;2023-01-27T06:05:33;97473.75;;;-0.34;100.00
49947;BME280;35839;48.662;13.300;2023-01-27T06:07:59;97473.59;;;-0.31;100.00
49947;BME280;35839;48.662;13.300;2023-01-27T06:10:24;97474.59;;;-0.34;100.00
49947;BME280;35839;48.662;13.300;2023-01-27T06:12:49;97473.25;;;-0.41;100.00
49947;BME280;35839;48.662;13.300;2023-01-27T06:15:14;97481.03;;;-0.43;100.00
49947;BME280;35839;48.662;13.300;2023-01-27T06:17:40;97472.09;;;-0.35;100.00
49947;BME280;35839;48.662;13.300;2023-01-27T06:20:05;97470.59;;;-0.24;100.00
49947;BME280;35839;48.662;13.300;2023-01-27T06:22:31;97462.31;;;-0.13;100.00
49947;BME280;35839;48.662;13.300;2023-01-27T06:24:56;97472.00;;;-0.34;100.00
49947;BME280;35839;48.662;13.300;2023-01-27T06:27:21;97470.19;;;-0.32;100.00
49947;BME280;35839;48.662;13.300;2023-01-27T06:29:46;97475.06;;;-0.43;100.00
49947;BME280;35839;48.662;13.300;2023-01-27T06:32:12;97472.09;;;-0.35;100.00
49947;BME280;35839;48.662;13.300;2023-01-27T06:34:37;97469.72;;;-0.56;100.00
49947;BME280;35839;48.662;13.300;2023-01-27T06:37:03;97468.16;;;-0.43;100.00
49947;BME280;35839;48.662;13.300;2023-01-27T06:39:28;97478.88;;;-0.50;100.00
49947;BME280;35839;48.662;13.300;2023-01-27T06:41:53;97474.78;;;-0.54;100.00
49947;BME280;35839;48.662;13.300;2023-01-27T06:44:18;97471.56;;;-0.42;100.00
49947;BME280;35839;48.662;13.300;2023-01-27T06:46:44;97480.50;;;-0.65;100.00
49947;BME280;35839;48.662;13.300;2023-01-27T06:49:09;97485.81;;;-0.52;100.00
49947;BME280;35839;48.662;13.300;2023-01-27T06:51:34;97485.81;;;-0.35;100.00
49947;BME280;35839;48.662;13.300;2023-01-27T06:53:59;97498.53;;;-0.49;100.00
49947;BME280;35839;48.662;13.300;2023-01-27T06:56:25;97488.69;;;-0.41;100.00
49947;BME280;35839;48.662;13.300;2023-01-27T06:58:50;97496.50;;;-0.60;100.00
49947;BME280;35839;48.662;13.300;2023-01-27T07:01:15;97495.81;;;-0.46;100.00
49947;BME280;35839;48.662;13.300;2023-01-27T07:03:41;97506.00;;;-0.45;100.00
49947;BME280;35839;48.662;13.300;2023-01-27T07:06:07;97502.78;;;-0.48;100.00
49947;BME280;35839;48.662;13.300;2023-01-27T07:08:32;97512.13;;;-0.47;100.00
49947;BME280;35839;48.662;13.300;2023-01-27T07:11:01;97515.03;;;-0.71;100.00
49947;BME280;35839;48.662;13.300;2023-01-27T07:13:26;97514.81;;;-0.49;100.00
49947;BME280;35839;48.662;13.300;2023-01-27T07:15:55;97514.53;;;-0.60;100.00
49947;BME280;35839;48.662;13.300;2023-01-27T07:18:20;97521.19;;;-0.40;100.00
49947;BME280;35839;48.662;13.300;2023-01-27T07:20:46;97522.06;;;-0.24;100.00
49947;BME280;35839;48.662;13.300;2023-01-27T07:23:11;97521.59;;;-0.30;100.00
49947;BME280;35839;48.662;13.300;2023-01-27T07:25:37;97533.94;;;-0.21;100.00
49947;BME280;35839;48.662;13.300;2023-01-27T07:28:04;97528.38;;;-0.29;100.00
49947;BME280;35839;48.662;13.300;2023-01-27T07:30:30;97534.31;;;-0.45;100.00
49947;BME280;35839;48.662;13.300;2023-01-27T07:33:05;97540.19;;;-0.25;100.00
49947;BME280;35839;48.662;13.300;2023-01-27T07:35:30;97546.34;;;-0.12;100.00
49947;BME280;35839;48.662;13.300;2023-01-27T07:37:56;97550.16;;;-0.19;100.00
49947;BME280;35839;48.662;13.300;2023-01-27T07:40:22;97551.97;;;-0.21;100.00
49947;BME280;35839;48.662;13.300;2023-01-27T07:42:47;97549.66;;;-0.10;100.00
49947;BME280;35839;48.662;13.300;2023-01-27T07:45:13;97566.34;;;-0.17;100.00
49947;BME280;35839;48.662;13.300;2023-01-27T07:47:38;97561.78;;;-0.12;100.00
49947;BME280;35839;48.662;13.300;2023-01-27T07:50:04;97557.97;;;-0.20;100.00
49947;BME280;35839;48.662;13.300;2023-01-27T07:52:29;97558.63;;;-0.17;100.00
49947;BME280;35839;48.662;13.300;2023-01-27T07:54:55;97566.63;;;-0.06;100.00
49947;BME280;35839;48.662;13.300;2023-01-27T07:57:20;97558.06;;;-0.06;100.00
49947;BME280;35839;48.662;13.300;2023-01-27T07:59:45;97552.00;;;-0.05;100.00
49947;BME280;35839;48.662;13.300;2023-01-27T08:02:10;97556.81;;;-0.15;100.00
49947;BME280;35839;48.662;13.300;2023-01-27T08:04:36;97557.84;;;-0.02;100.00
49947;BME280;35839;48.662;13.300;2023-01-27T08:07:01;97547.19;;;0.05;100.00
49947;BME280;35839;48.662;13.300;2023-01-27T08:09:26;97556.25;;;-0.04;100.00
49947;BME280;35839;48.662;13.300;2023-01-27T08:11:52;97539.72;;;-0.16;100.00
49947;BME280;35839;48.662;13.300;2023-01-27T08:14:17;97544.03;;;-0.01;100.00
49947;BME280;35839;48.662;13.300;2023-01-27T08:16:42;97546.88;;;0.11;100.00
49947;BME280;35839;48.662;13.300;2023-01-27T08:19:08;97547.47;;;0.16;100.00
49947;BME280;35839;48.662;13.300;2023-01-27T08:21:33;97548.88;;;0.06;100.00
49947;BME280;35839;48.662;13.300;2023-01-27T08:23:59;97548.19;;;0.02;100.00
49947;BME280;35839;48.662;13.300;2023-01-27T08:26:25;97543.72;;;0.06;100.00
49947;BME280;35839;48.662;13.300;2023-01-27T08:28:50;97552.03;;;0.11;100.00
49947;BME280;35839;48.662;13.300;2023-01-27T08:31:16;97534.31;;;0.05;100.00
49947;BME280;35839;48.662;13.300;2023-01-27T08:33:43;97544.03;;;-0.01;100.00
49947;BME280;35839;48.662;13.300;2023-01-27T08:36:12;97543.06;;;0.18;100.00
49947;BME280;35839;48.662;13.300;2023-01-27T08:38:39;97543.16;;;0.01;100.00
49947;BME280;35839;48.662;13.300;2023-01-27T08:41:17;97538.75;;;0.03;100.00
49947;BME280;35839;48.662;13.300;2023-01-27T08:43:42;97551.31;;;0.25;100.00
49947;BME280;35839;48.662;13.300;2023-01-27T08:46:08;97551.06;;;0.29;100.00
49947;BME280;35839;48.662;13.300;2023-01-27T08:48:34;97554.03;;;0.06;100.00
49947;BME280;35839;48.662;13.300;2023-01-27T08:51:01;97553.22;;;0.21;100.00
49947;BME280;35839;48.662;13.300;2023-01-27T08:53:27;97558.03;;;0.27;100.00
49947;BME280;35839;48.662;13.300;2023-01-27T08:55:55;97562.91;;;0.16;100.00
49947;BME280;35839;48.662;13.300;2023-01-27T08:58:22;97565.81;;;-0.06;100.00
49947;BME280;35839;48.662;13.300;2023-01-27T09:00:48;97557.31;;;-0.08;100.00
49947;BME280;35839;48.662;13.300;2023-01-27T09:03:13;97559.38;;;0.34;100.00
49947;BME280;35839;48.662;13.300;2023-01-27T09:05:39;97563.34;;;0.08;100.00
49947;BME280;35839;48.662;13.300;2023-01-27T09:08:05;97571.97;;;0.23;100.00
49947;BME280;35839;48.662;13.300;2023-01-27T09:10:30;97571.47;;;0.01;100.00
49947;BME280;35839;48.662;13.300;2023-01-27T09:12:56;97565.09;;;0.08;100.00
49947;BME280;35839;48.662;13.300;2023-01-27T09:15:21;97579.25;;;-0.01;100.00
49947;BME280;35839;48.662;13.300;2023-01-27T09:17:46;97570.81;;;0.13;100.00
49947;BME280;35839;48.662;13.300;2023-01-27T09:20:12;97569.31;;;0.09;100.00
49947;BME280;35839;48.662;13.300;2023-01-27T09:22:39;97570.84;;;0.29;100.00
49947;BME280;35839;48.662;13.300;2023-01-27T09:25:07;97568.25;;;0.13;100.00
49947;BME280;35839;48.662;13.300;2023-01-27T09:27:32;97574.16;;;0.15;100.00
49947;BME280;35839;48.662;13.300;2023-01-27T09:29:57;97577.41;;;0.34;100.00
49947;BME280;35839;48.662;13.300;2023-01-27T09:32:23;97578.47;;;0.30;100.00
49947;BME280;35839;48.662;13.300;2023-01-27T09:34:48;97583.25;;;0.05;100.00
49947;BME280;35839;48.662;13.300;2023-01-27T09:37:13;97590.59;;;0.12;100.00
49947;BME280;35839;48.662;13.300;2023-01-27T09:39:46;97592.03;;;0.34;100.00
49947;BME280;35839;48.662;13.300;2023-01-27T09:45:18;97591.47;;;0.45;100.00
49947;BME280;35839;48.662;13.300;2023-01-27T09:48:16;97585.06;;;0.52;100.00
49947;BME280;35839;48.662;13.300;2023-01-27T09:50:56;97589.63;;;0.47;100.00
49947;BME280;35839;48.662;13.300;2023-01-27T09:56:12;97593.19;;;0.28;100.00
49947;BME280;35839;48.662;13.300;2023-01-27T10:04:36;97590.97;;;0.54;100.00
49947;BME280;35839;48.662;13.300;2023-01-27T10:08:13;97588.97;;;0.75;100.00
49947;BME280;35839;48.662;13.300;2023-01-27T10:21:33;97588.88;;;0.60;100.00
49947;BME280;35839;48.662;13.300;2023-01-27T10:24:28;97581.97;;;0.77;100.00
49947;BME280;35839;48.662;13.300;2023-01-27T10:27:06;97575.16;;;0.92;100.00
49947;BME280;35839;48.662;13.300;2023-01-27T10:29:45;97571.38;;;0.97;100.00
49947;BME280;35839;48.662;13.300;2023-01-27T10:35:07;97582.50;;;0.52;100.00
49947;BME280;35839;48.662;13.300;2023-01-27T10:40:10;97582.91;;;0.60;100.00
49947;BME280;35839;48.662;13.300;2023-01-27T10:45:43;97583.66;;;0.62;100.00
49947;BME280;35839;48.662;13.300;2023-01-27T10:57:10;97587.81;;;0.80;100.00
49947;BME280;35839;48.662;13.300;2023-01-27T10:59:49;97589.06;;;0.57;100.00
49947;BME280;35839;48.662;13.300;2023-01-27T11:05:10;97586.47;;;0.73;100.00
49947;BME280;35839;48.662;13.300;2023-01-27T11:07:47;97592.69;;;0.69;100.00
49947;BME280;35839;48.662;13.300;2023-01-27T11:10:16;97589.94;;;0.72;100.00
49947;BME280;35839;48.662;13.300;2023-01-27T11:12:46;97587.66;;;0.68;100.00
49947;BME280;35839;48.662;13.300;2023-01-27T11:17:47;97581.13;;;0.60;100.00
49947;BME280;35839;48.662;13.300;2023-01-27T11:20:25;97577.25;;;0.69;100.00
49947;BME280;35839;48.662;13.300;2023-01-27T11:22:57;97573.84;;;0.84;100.00
49947;BME280;35839;48.662;13.300;2023-01-27T11:31:12;97581.50;;;0.54;100.00
49947;BME280;35839;48.662;13.300;2023-01-27T11:36:23;97570.84;;;0.29;100.00
49947;BME280;35839;48.662;13.300;2023-01-27T11:38:49;97571.19;;;0.38;100.00
49947;BME280;35839;48.662;13.300;2023-01-27T11:41:14;97580.00;;;0.66;100.00
49947;BME280;35839;48.662;13.300;2023-01-27T11:43:39;97576.00;;;0.76;100.00
49947;BME280;35839;48.662;13.300;2023-01-27T11:46:09;97567.03;;;0.68;100.00
49947;BME280;35839;48.662;13.300;2023-01-27T11:48:42;97564.16;;;0.88;100.00
49947;BME280;35839;48.662;13.300;2023-01-27T11:51:13;97565.47;;;0.95;100.00
49947;BME280;35839;48.662;13.300;2023-01-27T11:53:42;97569.19;;;0.59;100.00
49947;BME280;35839;48.662;13.300;2023-01-27T11:56:16;97556.88;;;0.80;100.00
49947;BME280;35839;48.662;13.300;2023-01-27T11:58:48;97553.81;;;1.04;100.00
49947;BME280;35839;48.662;13.300;2023-01-27T12:01:24;97556.53;;;0.87;100.00
49947;BME280;35839;48.662;13.300;2023-01-27T12:04:02;97544.56;;;0.70;100.00
49947;BME280;35839;48.662;13.300;2023-01-27T12:06:37;97551.19;;;0.90;100.00
49947;BME280;35839;48.662;13.300;2023-01-27T12:09:04;97545.25;;;0.57;100.00
49947;BME280;35839;48.662;13.300;2023-01-27T12:11:30;97547.75;;;0.75;100.00
49947;BME280;35839;48.662;13.300;2023-01-27T12:14:01;97544.41;;;0.57;100.00
49947;BME280;35839;48.662;13.300;2023-01-27T12:16:53;97541.78;;;0.43;100.00
49947;BME280;35839;48.662;13.300;2023-01-27T12:19:35;97545.06;;;0.60;100.00
49947;BME280;35839;48.662;13.300;2023-01-27T12:22:19;97538.41;;;0.72;100.00
49947;BME280;35839;48.662;13.300;2023-01-27T12:24:52;97536.75;;;0.71;100.00
49947;BME280;35839;48.662;13.300;2023-01-27T12:27:22;97536.56;;;0.74;100.00
49947;BME280;35839;48.662;13.300;2023-01-27T12:29:52;97535.25;;;0.83;100.00
49947;BME280;35839;48.662;13.300;2023-01-27T12:32:23;97538.06;;;0.94;100.00
49947;BME280;35839;48.662;13.300;2023-01-27T12:34:52;97522.28;;;0.84;100.00
49947;BME280;35839;48.662;13.300;2023-01-27T12:37:30;97537.22;;;0.94;100.00
49947;BME280;35839;48.662;13.300;2023-01-27T12:40:14;97525.75;;;0.83;100.00
49947;BME280;35839;48.662;13.300;2023-01-27T12:42:42;97531.84;;;0.82;100.00
49947;BME280;35839;48.662;13.300;2023-01-27T12:45:24;97527.25;;;0.88;100.00
49947;BME280;35839;48.662;13.300;2023-01-27T12:48:13;97529.91;;;0.86;100.00
49947;BME280;35839;48.662;13.300;2023-01-27T12:53:19;97533.41;;;0.85;100.00
49947;BME280;35839;48.662;13.300;2023-01-27T12:58:26;97528.25;;;0.85;100.00
49947;BME280;35839;48.662;13.300;2023-01-27T13:00:52;97523.19;;;0.83;100.00
49947;BME280;35839;48.662;13.300;2023-01-27T13:03:19;97531.19;;;1.09;100.00
49947;BME280;35839;48.662;13.300;2023-01-27T13:05:45;97526.78;;;1.11;100.00
49947;BME280;35839;48.662;13.300;2023-01-27T13:08:17;97519.03;;;1.11;100.00
49947;BME280;35839;48.662;13.300;2023-01-27T13:10:55;97527.34;;;1.16;100.00
49947;BME280;35839;48.662;13.300;2023-01-27T13:13:26;97533.53;;;0.98;100.00
49947;BME280;35839;48.662;13.300;2023-01-27T13:15:55;97534.94;;;0.73;100.00
49947;BME280;35839;48.662;13.300;2023-01-27T13:18:22;97542.59;;;0.75;100.00
49947;BME280;35839;48.662;13.300;2023-01-27T13:20:55;97540.09;;;0.73;100.00
49947;BME280;35839;48.662;13.300;2023-01-27T13:23:29;97538.94;;;0.63;100.00
49947;BME280;35839;48.662;13.300;2023-01-27T13:31:02;97541.41;;;0.80;100.00
49947;BME280;35839;48.662;13.300;2023-01-27T13:33:41;97544.72;;;0.82;100.00
49947;BME280;35839;48.662;13.300;2023-01-27T13:39:00;97547.19;;;1.00;100.00
49947;BME280;35839;48.662;13.300;2023-01-27T13:41:41;97551.13;;;0.91;100.00
49947;BME280;35839;48.662;13.300;2023-01-27T13:44:35;97548.69;;;0.88;100.00
49947;BME280;35839;48.662;13.300;2023-01-27T13:47:29;97558.34;;;1.00;100.00
49947;BME280;35839;48.662;13.300;2023-01-27T13:49:54;97558.75;;;0.93;100.00
49947;BME280;35839;48.662;13.300;2023-01-27T13:52:23;97550.16;;;1.08;100.00
49947;BME280;35839;48.662;13.300;2023-01-27T13:54:49;97551.59;;;0.98;100.00
49947;BME280;35839;48.662;13.300;2023-01-27T13:57:40;97560.69;;;0.89;100.00
49947;BME280;35839;48.662;13.300;2023-01-27T14:00:41;97557.28;;;0.89;100.00
49947;BME280;35839;48.662;13.300;2023-01-27T14:09:11;97555.03;;;0.82;100.00
49947;BME280;35839;48.662;13.300;2023-01-27T14:11:49;97555.75;;;1.00;100.00
49947;BME280;35839;48.662;13.300;2023-01-27T14:14:20;97558.19;;;0.88;100.00
49947;BME280;35839;48.662;13.300;2023-01-27T14:22:46;97549.56;;;0.73;100.00
49947;BME280;35839;48.662;13.300;2023-01-27T14:25:33;97564.53;;;0.82;100.00
49947;BME280;35839;48.662;13.300;2023-01-27T14:28:21;97561.94;;;0.82;100.00
49947;BME280;35839;48.662;13.300;2023-01-27T14:31:23;97560.44;;;0.78;100.00
49947;BME280;35839;48.662;13.300;2023-01-27T14:36:55;97563.66;;;0.81;100.00
49947;BME280;35839;48.662;13.300;2023-01-27T14:42:10;97560.38;;;0.79;100.00
49947;BME280;35839;48.662;13.300;2023-01-27T14:44:48;97560.75;;;0.88;100.00
49947;BME280;35839;48.662;13.300;2023-01-27T14:47:30;97562.72;;;0.68;100.00
49947;BME280;35839;48.662;13.300;2023-01-27T14:50:06;97569.63;;;0.68;100.00
49947;BME280;35839;48.662;13.300;2023-01-27T14:52:46;97559.00;;;1.04;100.00
49947;BME280;35839;48.662;13.300;2023-01-27T14:55:24;97561.44;;;0.75;100.00
49947;BME280;35839;48.662;13.300;2023-01-27T15:06:29;97577.56;;;0.79;100.00
49947;BME280;35839;48.662;13.300;2023-01-27T15:12:29;97580.50;;;0.89;100.00
49947;BME280;35839;48.662;13.300;2023-01-27T15:15:17;97584.28;;;0.81;100.00
49947;BME280;35839;48.662;13.300;2023-01-27T15:23:54;97591.63;;;0.89;100.00
49947;BME280;35839;48.662;13.300;2023-01-27T15:26:13;97593.53;;;0.86;100.00
49947;BME280;35839;48.662;13.300;2023-01-27T15:28:41;97586.47;;;0.73;100.00
49947;BME280;35839;48.662;13.300;2023-01-27T15:36:36;97606.28;;;0.89;100.00
49947;BME280;35839;48.662;13.300;2023-01-27T15:46:49;97597.94;;;0.83;100.00
49947;BME280;35839;48.662;13.300;2023-01-27T15:49:22;97597.78;;;0.87;100.00
49947;BME280;35839;48.662;13.300;2023-01-27T15:52:09;97603.59;;;0.90;100.00
49947;BME280;35839;48.662;13.300;2023-01-27T15:54:39;97599.25;;;0.91;100.00
49947;BME280;35839;48.662;13.300;2023-01-27T15:57:05;97598.53;;;0.89;100.00
49947;BME280;35839;48.662;13.300;2023-01-27T15:59:47;97600.13;;;0.75;100.00
49947;BME280;35839;48.662;13.300;2023-01-27T16:02:22;97608.50;;;0.79;100.00
49947;BME280;35839;48.662;13.300;2023-01-27T16:04:53;97599.94;;;0.62;100.00
49947;BME280;35839;48.662;13.300;2023-01-27T16:07:27;97606.41;;;0.86;100.00
49947;BME280;35839;48.662;13.300;2023-01-27T16:09:53;97605.53;;;0.87;100.00
49947;BME280;35839;48.662;13.300;2023-01-27T16:14:48;97596.22;;;0.84;100.00
49947;BME280;35839;48.662;13.300;2023-01-27T16:17:19;97604.91;;;0.81;100.00
49947;BME280;35839;48.662;13.300;2023-01-27T16:19:51;97601.38;;;0.68;100.00
49947;BME280;35839;48.662;13.300;2023-01-27T16:22:19;97600.94;;;0.60;100.00
49947;BME280;35839;48.662;13.300;2023-01-27T16:30:40;97613.50;;;0.66;100.00
49947;BME280;35839;48.662;13.300;2023-01-27T16:33:40;97616.88;;;0.51;100.00
49947;BME280;35839;48.662;13.300;2023-01-27T16:38:45;97628.88;;;0.68;100.00
49947;BME280;35839;48.662;13.300;2023-01-27T16:41:26;97627.78;;;0.72;100.00
49947;BME280;35839;48.662;13.300;2023-01-27T16:43:59;97632.28;;;0.68;100.00
49947;BME280;35839;48.662;13.300;2023-01-27T16:46:35;97637.50;;;0.51;100.00
49947;BME280;35839;48.662;13.300;2023-01-27T16:49:09;97634.34;;;0.46;100.00
49947;BME280;35839;48.662;13.300;2023-01-27T16:51:36;97633.69;;;0.58;100.00
49947;BME280;35839;48.662;13.300;2023-01-27T16:54:12;97642.03;;;0.63;100.00
49947;BME280;35839;48.662;13.300;2023-01-27T16:56:47;97636.34;;;0.72;100.00
49947;BME280;35839;48.662;13.300;2023-01-27T16:59:20;97644.00;;;0.74;100.00
49947;BME280;35839;48.662;13.300;2023-01-27T17:02:06;97647.59;;;0.71;100.00
49947;BME280;35839;48.662;13.300;2023-01-27T17:04:35;97648.66;;;0.67;100.00
49947;BME280;35839;48.662;13.300;2023-01-27T17:07:07;97657.47;;;0.63;100.00
49947;BME280;35839;48.662;13.300;2023-01-27T17:09:39;97654.66;;;0.68;100.00
49947;BME280;35839;48.662;13.300;2023-01-27T17:12:28;97652.91;;;0.68;100.00
49947;BME280;35839;48.662;13.300;2023-01-27T17:14:54;97657.78;;;0.57;100.00
49947;BME280;35839;48.662;13.300;2023-01-27T17:17:22;97665.56;;;0.39;100.00
49947;BME280;35839;48.662;13.300;2023-01-27T17:19:51;97665.09;;;0.49;100.00
49947;BME280;35839;48.662;13.300;2023-01-27T17:22:22;97667.56;;;0.34;100.00
49947;BME280;35839;48.662;13.300;2023-01-27T17:24:52;97661.94;;;0.44;100.00
49947;BME280;35839;48.662;13.300;2023-01-27T17:27:23;97666.78;;;0.50;100.00
49947;BME280;35839;48.662;13.300;2023-01-27T17:29:53;97668.91;;;0.41;100.00
49947;BME280;35839;48.662;13.300;2023-01-27T17:32:25;97668.94;;;0.57;100.00
49947;BME280;35839;48.662;13.300;2023-01-27T17:34:57;97673.34;;;0.55;100.00
49947;BME280;35839;48.662;13.300;2023-01-27T17:37:23;97665.44;;;0.43;100.00
49947;BME280;35839;48.662;13.300;2023-01-27T17:40:00;97672.72;;;0.34;100.00
49947;BME280;35839;48.662;13.300;2023-01-27T17:42:31;97671.88;;;0.34;100.00
49947;BME280;35839;48.662;13.300;2023-01-27T17:45:23;97672.34;;;0.25;100.00
49947;BME280;35839;48.662;13.300;2023-01-27T17:47:51;97677.72;;;0.37;100.00
49947;BME280;35839;48.662;13.300;2023-01-27T17:50:19;97680.31;;;0.37;100.00
49947;BME280;35839;48.662;13.300;2023-01-27T17:52:45;97671.34;;;0.45;100.00
49947;BME280;35839;48.662;13.300;2023-01-27T17:55:16;97673.16;;;0.43;100.00
49947;BME280;35839;48.662;13.300;2023-01-27T17:57:42;97678.50;;;0.22;100.00
49947;BME280;35839;48.662;13.300;2023-01-27T18:00:19;97680.19;;;0.39;100.00
49947;BME280;35839;48.662;13.300;2023-01-27T18:05:20;97665.91;;;0.00;100.00
49947;BME280;35839;48.662;13.300;2023-01-27T18:07:46;97674.44;;;-0.17;100.00
49947;BME280;35839;48.662;13.300;2023-01-27T18:10:22;97674.44;;;0.01;100.00
49947;BME280;35839;48.662;13.300;2023-01-27T18:12:48;97672.66;;;0.18;100.00
49947;BME280;35839;48.662;13.300;2023-01-27T18:15:37;97681.50;;;0.30;100.00
49947;BME280;35839;48.662;13.300;2023-01-27T18:18:14;97676.16;;;0.17;100.00
49947;BME280;35839;48.662;13.300;2023-01-27T18:20:44;97677.38;;;-0.07;100.00
49947;BME280;35839;48.662;13.300;2023-01-27T18:23:16;97681.41;;;-0.02;100.00
49947;BME280;35839;48.662;13.300;2023-01-27T18:25:44;97695.69;;;0.04;100.00
49947;BME280;35839;48.662;13.300;2023-01-27T18:28:14;97696.22;;;0.11;100.00
49947;BME280;35839;48.662;13.300;2023-01-27T18:30:45;97687.16;;;0.21;100.00
49947;BME280;35839;48.662;13.300;2023-01-27T18:33:12;97702.72;;;0.35;100.00
49947;BME280;35839;48.662;13.300;2023-01-27T18:35:39;97697.00;;;0.13;100.00
49947;BME280;35839;48.662;13.300;2023-01-27T18:38:24;97707.00;;;0.19;100.00
49947;BME280;35839;48.662;13.300;2023-01-27T18:40:50;97715.31;;;0.24;100.00
49947;BME280;35839;48.662;13.300;2023-01-27T18:43:15;97712.28;;;0.33;100.00
49947;BME280;35839;48.662;13.300;2023-01-27T18:45:42;97710.00;;;0.27;100.00
49947;BME280;35839;48.662;13.300;2023-01-27T18:48:12;97711.31;;;0.01;100.00
49947;BME280;35839;48.662;13.300;2023-01-27T18:50:43;97710.38;;;0.02;100.00
49947;BME280;35839;48.662;13.300;2023-01-27T18:53:14;97708.06;;;0.15;100.00
49947;BME280;35839;48.662;13.300;2023-01-27T18:55:40;97709.34;;;0.24;100.00
49947;BME280;35839;48.662;13.300;2023-01-27T18:58:06;97713.38;;;0.12;100.00
49947;BME280;35839;48.662;13.300;2023-01-27T19:00:36;97711.16;;;0.04;100.00
49947;BME280;35839;48.662;13.300;2023-01-27T19:03:11;97718.66;;;0.09;100.00
49947;BME280;35839;48.662;13.300;2023-01-27T19:05:38;97721.31;;;0.07;100.00
49947;BME280;35839;48.662;13.300;2023-01-27T19:08:04;97724.78;;;0.06;100.00
49947;BME280;35839;48.662;13.300;2023-01-27T19:10:32;97724.78;;;0.06;100.00
49947;BME280;35839;48.662;13.300;2023-01-27T19:12:59;97724.84;;;0.22;100.00
49947;BME280;35839;48.662;13.300;2023-01-27T19:15:27;97725.47;;;0.10;100.00
49947;BME280;35839;48.662;13.300;2023-01-27T19:17:55;97721.00;;;0.13;100.00
49947;BME280;35839;48.662;13.300;2023-01-27T19:20:23;97725.91;;;0.18;100.00
49947;BME280;35839;48.662;13.300;2023-01-27T19:22:50;97726.47;;;0.07;100.00
49947;BME280;35839;48.662;13.300;2023-01-27T19:25:15;97728.41;;;0.19;100.00
49947;BME280;35839;48.662;13.300;2023-01-27T19:27:45;97735.78;;;0.10;100.00
49947;BME280;35839;48.662;13.300;2023-01-27T19:30:30;97732.44;;;0.08;100.00
49947;BME280;35839;48.662;13.300;2023-01-27T19:33:19;97733.81;;;0.15;100.00
49947;BME280;35839;48.662;13.300;2023-01-27T19:35:49;97728.50;;;0.01;100.00
49947;BME280;35839;48.662;13.300;2023-01-27T19:38:15;97734.34;;;-0.13;100.00
49947;BME280;35839;48.662;13.300;2023-01-27T19:40:41;97732.91;;;-0.02;100.00
49947;BME280;35839;48.662;13.300;2023-01-27T19:43:12;97732.06;;;-0.02;100.00
49947;BME280;35839;48.662;13.300;2023-01-27T19:45:39;97743.97;;;0.01;100.00
49947;BME280;35839;48.662;13.300;2023-01-27T19:48:19;97746.50;;;0.18;100.00
49947;BME280;35839;48.662;13.300;2023-01-27T19:50:45;97753.78;;;0.27;100.00
49947;BME280;35839;48.662;13.300;2023-01-27T19:53:11;97753.84;;;0.26;100.00
49947;BME280;35839;48.662;13.300;2023-01-27T19:55:37;97758.56;;;0.17;100.00
49947;BME280;35839;48.662;13.300;2023-01-27T19:58:03;97755.47;;;0.28;100.00
49947;BME280;35839;48.662;13.300;2023-01-27T20:00:34;97754.69;;;0.09;100.00
49947;BME280;35839;48.662;13.300;2023-01-27T20:03:00;97750.38;;;0.09;100.00
49947;BME280;35839;48.662;13.300;2023-01-27T20:05:28;97752.78;;;0.30;100.00
49947;BME280;35839;48.662;13.300;2023-01-27T20:07:54;97767.00;;;0.21;100.00
49947;BME280;35839;48.662;13.300;2023-01-27T20:10:26;97758.94;;;-0.08;100.00
49947;BME280;35839;48.662;13.300;2023-01-27T20:13:03;97760.28;;;-0.01;100.00
49947;BME280;35839;48.662;13.300;2023-01-27T20:15:33;97758.72;;;0.14;100.00
49947;BME280;35839;48.662;13.300;2023-01-27T20:18:01;97759.09;;;0.24;100.00
49947;BME280;35839;48.662;13.300;2023-01-27T20:20:27;97763.84;;;0.32;100.00
49947;BME280;35839;48.662;13.300;2023-01-27T20:22:52;97764.75;;;0.48;100.00
49947;BME280;35839;48.662;13.300;2023-01-27T20:25:23;97758.94;;;0.45;100.00
49947;BME280;35839;48.662;13.300;2023-01-27T20:27:52;97768.31;;;0.46;100.00
49947;BME280;35839;48.662;13.300;2023-01-27T20:30:21;97760.69;;;0.27;100.00
49947;BME280;35839;48.662;13.300;2023-01-27T20:32:47;97762.72;;;0.37;100.00
49947;BME280;35839;48.662;13.300;2023-01-27T20:35:14;97772.78;;;-0.10;100.00
49947;BME280;35839;48.662;13.300;2023-01-27T20:37:41;97771.47;;;-0.19;100.00
49947;BME280;35839;48.662;13.300;2023-01-27T20:40:11;97768.03;;;-0.18;100.00
49947;BME280;35839;48.662;13.300;2023-01-27T20:42:38;97758.72;;;-0.20;100.00
49947;BME280;35839;48.662;13.300;2023-01-27T20:45:03;97763.31;;;-0.10;100.00
49947;BME280;35839;48.662;13.300;2023-01-27T20:47:29;97763.91;;;-0.22;100.00